createdAt,value
2023-04-26T00:00:30.534Z,24.86
2023-04-26T00:01:30.466Z,24.88
2023-04-26T00:02:30.531Z,24.88
2023-04-26T00:03:30.702Z,24.88
2023-04-26T00:04:30.626Z,24.97
2023-04-26T00:05:30.577Z,24.92
2023-04-26T00:06:30.583Z,24.88
2023-04-26T00:07:30.651Z,24.91
2023-04-26T00:08:30.639Z,24.94
2023-04-26T00:09:30.668Z,24.92
2023-04-26T00:10:30.693Z,24.95
2023-04-26T00:11:30.729Z,24.93
2023-04-26T00:12:30.788Z,24.98
2023-04-26T00:13:30.758Z,25.00
2023-04-26T00:14:30.821Z,25.03
2023-04-26T00:15:30.888Z,25.07
2023-04-26T00:16:30.932Z,25.05
2023-04-26T00:17:30.950Z,25.11
2023-04-26T00:18:30.964Z,25.10
2023-04-26T00:19:30.958Z,25.14
2023-04-26T00:20:31.030Z,25.10
2023-04-26T00:21:31.047Z,25.07
2023-04-26T00:22:31.071Z,25.11
2023-04-26T00:23:31.100Z,25.14
2023-04-26T00:24:31.116Z,25.19
2023-04-26T00:25:31.135Z,25.17
2023-04-26T00:26:31.159Z,25.08
2023-04-26T00:27:31.210Z,25.11
2023-04-26T00:28:31.257Z,25.08
2023-04-26T00:29:31.229Z,25.19
2023-04-26T00:30:31.291Z,25.13
2023-04-26T00:31:31.352Z,25.16
2023-04-26T00:32:31.391Z,25.11
2023-04-26T00:33:31.382Z,25.10
2023-04-26T00:34:31.380Z,25.26
2023-04-26T00:35:31.456Z,25.22
2023-04-26T00:36:31.445Z,25.20
2023-04-26T00:37:31.467Z,25.20
2023-04-26T00:38:31.519Z,25.19
2023-04-26T00:39:31.514Z,25.19
2023-04-26T00:40:31.564Z,25.16
2023-04-26T00:41:31.575Z,25.21
2023-04-26T00:42:31.591Z,25.18
2023-04-26T00:43:31.576Z,25.19
2023-04-26T00:44:31.589Z,25.16
2023-04-26T00:45:31.639Z,25.17
2023-04-26T00:46:31.665Z,25.12
2023-04-26T00:47:31.690Z,25.17
2023-04-26T00:48:31.701Z,25.17
2023-04-26T00:49:31.704Z,25.16
2023-04-26T00:50:31.706Z,25.16
2023-04-26T00:51:31.715Z,25.14
2023-04-26T00:52:31.744Z,25.14
2023-04-26T00:53:31.727Z,25.13
2023-04-26T00:54:31.739Z,25.13
2023-04-26T00:55:31.777Z,25.08
2023-04-26T00:56:31.746Z,25.07
2023-04-26T00:57:31.707Z,25.00
2023-04-26T00:58:31.710Z,25.00
2023-04-26T00:59:31.743Z,24.91
2023-04-26T01:00:31.702Z,24.87
2023-04-26T01:01:31.785Z,24.82
2023-04-26T01:02:31.864Z,24.83
2023-04-26T01:03:31.895Z,24.80
2023-04-26T01:04:31.892Z,24.77
2023-04-26T01:05:31.921Z,24.75
2023-04-26T01:06:31.957Z,24.73
2023-04-26T01:07:32.045Z,24.70
2023-04-26T01:08:32.077Z,24.66
2023-04-26T01:09:32.160Z,24.67
2023-04-26T01:10:32.212Z,24.60
2023-04-26T01:11:32.239Z,24.62
2023-04-26T01:12:32.281Z,24.59
2023-04-26T01:13:32.325Z,24.55
2023-04-26T01:14:32.395Z,24.57
2023-04-26T01:15:32.422Z,24.55
2023-04-26T01:16:32.547Z,24.44
2023-04-26T01:17:32.603Z,24.44
2023-04-26T01:18:32.635Z,24.41
2023-04-26T01:19:32.684Z,24.46
2023-04-26T01:20:32.744Z,24.44
2023-04-26T01:21:32.808Z,24.38
2023-04-26T01:22:32.872Z,24.33
2023-04-26T01:23:32.915Z,24.36
2023-04-26T01:24:32.960Z,24.36
2023-04-26T01:25:33.042Z,24.31
2023-04-26T01:26:33.133Z,24.28
2023-04-26T01:27:33.167Z,24.30
2023-04-26T01:28:33.179Z,24.22
2023-04-26T01:29:33.256Z,24.29
2023-04-26T01:30:33.321Z,24.22
2023-04-26T01:31:33.462Z,24.23
2023-04-26T01:32:33.424Z,24.24
2023-04-26T01:33:33.478Z,24.24
2023-04-26T01:34:33.525Z,24.23
2023-04-26T01:35:33.605Z,24.24
2023-04-26T01:36:33.643Z,24.19
2023-04-26T01:37:33.708Z,24.17
2023-04-26T01:38:33.779Z,24.20
2023-04-26T01:39:33.797Z,24.17
2023-04-26T01:40:33.891Z,24.19
2023-04-26T01:41:33.926Z,24.13
2023-04-26T01:42:33.978Z,24.13
2023-04-26T01:44:49.883Z,24.13
2023-04-26T01:45:49.936Z,24.08
2023-04-26T01:46:49.911Z,24.09
2023-04-26T01:47:49.922Z,24.09
2023-04-26T01:48:49.976Z,24.10
2023-04-26T01:49:49.869Z,24.11
2023-04-26T01:50:49.841Z,24.06
2023-04-26T01:51:49.824Z,24.02
2023-04-26T01:52:49.807Z,24.06
2023-04-26T01:53:49.790Z,24.01
2023-04-26T01:54:49.819Z,23.99
2023-04-26T01:55:49.799Z,24.01
2023-04-26T01:56:49.786Z,24.04
2023-04-26T01:57:49.783Z,24.06
2023-04-26T01:58:50.021Z,24.01
2023-04-26T01:59:49.769Z,23.98
2023-04-26T02:00:49.760Z,24.05
2023-04-26T02:01:49.752Z,24.08
2023-04-26T02:02:49.862Z,24.06
2023-04-26T02:03:49.788Z,24.09
2023-04-26T02:04:49.740Z,24.09
2023-04-26T02:05:49.711Z,24.09
2023-04-26T02:06:49.728Z,24.09
2023-04-26T02:07:49.733Z,24.12
2023-04-26T02:08:49.942Z,24.12
2023-04-26T02:09:49.719Z,24.08
2023-04-26T02:10:49.680Z,24.12
2023-04-26T02:11:49.700Z,24.09
2023-04-26T02:12:49.673Z,24.06
2023-04-26T02:13:49.696Z,24.09
2023-04-26T02:14:49.673Z,24.08
2023-04-26T02:15:49.693Z,24.04
2023-04-26T02:16:49.654Z,24.02
2023-04-26T02:17:49.736Z,24.04
2023-04-26T02:18:49.881Z,24.07
2023-04-26T02:19:49.648Z,24.10
2023-04-26T02:20:49.636Z,24.07
2023-04-26T02:21:49.638Z,24.05
2023-04-26T02:22:49.628Z,24.03
2023-04-26T02:23:49.672Z,24.07
2023-04-26T02:24:49.591Z,24.11
2023-04-26T02:25:49.588Z,24.04
2023-04-26T02:26:49.582Z,24.06
2023-04-26T02:27:49.581Z,24.07
2023-04-26T02:28:49.709Z,24.04
2023-04-26T02:29:49.538Z,24.03
2023-04-26T02:30:49.559Z,24.05
2023-04-26T02:31:49.632Z,24.05
2023-04-26T02:32:49.603Z,24.03
2023-04-26T02:33:49.533Z,24.03
2023-04-26T02:34:49.522Z,24.02
2023-04-26T02:35:49.512Z,23.99
2023-04-26T02:36:49.546Z,23.98
2023-04-26T02:37:49.500Z,24.02
2023-04-26T02:38:49.583Z,23.97
2023-04-26T02:39:50.094Z,24.00
2023-04-26T02:40:49.506Z,24.00
2023-04-26T02:41:49.506Z,24.00
2023-04-26T02:42:49.514Z,23.97
2023-04-26T02:43:49.529Z,24.01
2023-04-26T02:44:49.550Z,24.01
2023-04-26T02:45:49.556Z,23.94
2023-04-26T02:46:49.570Z,23.99
2023-04-26T02:47:49.579Z,23.90
2023-04-26T02:48:49.677Z,23.95
2023-04-26T02:49:49.580Z,23.99
2023-04-26T02:50:49.601Z,23.96
2023-04-26T02:51:49.586Z,23.93
2023-04-26T02:52:49.574Z,23.97
2023-04-26T02:53:49.579Z,23.95
2023-04-26T02:54:49.579Z,23.95
2023-04-26T02:55:49.608Z,23.92
2023-04-26T02:56:49.607Z,23.96
2023-04-26T02:57:49.566Z,23.92
2023-04-26T02:58:49.734Z,23.92
2023-04-26T02:59:49.574Z,23.91
2023-04-26T03:00:49.629Z,23.92
2023-04-26T03:01:49.617Z,23.91
2023-04-26T03:02:49.727Z,23.88
2023-04-26T03:03:49.696Z,23.87
2023-04-26T03:04:49.612Z,23.92
2023-04-26T03:05:49.618Z,23.90
2023-04-26T03:06:49.645Z,23.92
2023-04-26T03:07:49.582Z,23.90
2023-04-26T03:08:49.802Z,23.91
2023-04-26T03:09:49.605Z,23.87
2023-04-26T03:10:49.597Z,23.85
2023-04-26T03:11:50.310Z,23.87
2023-04-26T03:12:49.585Z,23.84
2023-04-26T03:13:49.600Z,23.87
2023-04-26T03:14:49.604Z,23.85
2023-04-26T03:15:49.616Z,23.83
2023-04-26T03:16:49.612Z,23.84
2023-04-26T03:17:49.646Z,23.83
2023-04-26T03:18:49.701Z,23.83
2023-04-26T03:19:49.578Z,23.84
2023-04-26T03:20:49.596Z,23.84
2023-04-26T03:21:49.623Z,23.87
2023-04-26T03:22:49.599Z,23.83
2023-04-26T03:23:49.598Z,23.86
2023-04-26T03:24:49.623Z,23.83
2023-04-26T03:25:49.618Z,23.83
2023-04-26T03:26:49.594Z,23.77
2023-04-26T03:27:49.630Z,23.80
2023-04-26T03:28:49.770Z,23.83
2023-04-26T03:29:49.610Z,23.80
2023-04-26T03:30:49.605Z,23.77
2023-04-26T03:31:49.642Z,23.77
2023-04-26T03:32:49.695Z,23.74
2023-04-26T03:33:49.637Z,23.79
2023-04-26T03:34:49.611Z,23.80
2023-04-26T03:35:49.602Z,23.74
2023-04-26T03:36:49.641Z,23.74
2023-04-26T03:37:50.806Z,23.82
2023-04-26T03:38:49.815Z,23.81
2023-04-26T03:39:49.602Z,23.79
2023-04-26T03:40:49.583Z,23.74
2023-04-26T03:41:49.588Z,23.78
2023-04-26T03:42:49.580Z,23.82
2023-04-26T03:43:49.564Z,23.76
2023-04-26T03:44:49.541Z,23.76
2023-04-26T03:45:49.585Z,23.76
2023-04-26T03:46:49.560Z,23.78
2023-04-26T03:47:49.588Z,23.72
2023-04-26T03:48:49.717Z,23.73
2023-04-26T03:49:49.543Z,23.69
2023-04-26T03:50:49.513Z,23.75
2023-04-26T03:51:49.516Z,23.73
2023-04-26T03:52:49.531Z,23.81
2023-04-26T03:53:49.502Z,23.75
2023-04-26T03:54:49.514Z,23.72
2023-04-26T03:55:49.476Z,23.70
2023-04-26T03:56:49.497Z,23.73
2023-04-26T03:57:49.492Z,23.72
2023-04-26T03:58:49.629Z,23.69
2023-04-26T03:59:49.464Z,23.72
2023-04-26T04:00:49.458Z,23.66
2023-04-26T04:01:49.459Z,23.68
2023-04-26T04:02:49.487Z,23.69
2023-04-26T04:03:49.641Z,23.59
2023-04-26T04:04:49.647Z,23.68
2023-04-26T04:05:49.413Z,23.66
2023-04-26T04:06:49.411Z,23.69
2023-04-26T04:07:49.394Z,23.69
2023-04-26T04:08:49.649Z,23.65
2023-04-26T04:09:49.409Z,23.68
2023-04-26T04:10:49.382Z,23.72
2023-04-26T04:11:49.385Z,23.66
2023-04-26T04:12:49.341Z,23.66
2023-04-26T04:13:49.361Z,23.67
2023-04-26T04:14:49.342Z,23.71
2023-04-26T04:15:49.372Z,23.62
2023-04-26T04:16:49.354Z,23.65
2023-04-26T04:17:49.360Z,23.58
2023-04-26T04:18:49.390Z,23.71
2023-04-26T04:19:49.328Z,23.63
2023-04-26T04:20:49.332Z,23.64
2023-04-26T04:21:49.297Z,23.63
2023-04-26T04:22:49.280Z,23.65
2023-04-26T04:23:49.299Z,23.63
2023-04-26T04:24:49.289Z,23.64
2023-04-26T04:25:49.270Z,23.61
2023-04-26T04:26:49.305Z,23.61
2023-04-26T04:27:49.246Z,23.64
2023-04-26T04:28:49.365Z,23.65
2023-04-26T04:29:49.275Z,23.65
2023-04-26T04:30:49.403Z,23.61
2023-04-26T04:31:49.281Z,23.61
2023-04-26T04:32:49.240Z,23.63
2023-04-26T04:33:49.237Z,23.61
2023-04-26T04:34:49.644Z,23.60
2023-04-26T04:35:49.269Z,23.61
2023-04-26T04:36:49.205Z,23.60
2023-04-26T04:37:49.195Z,23.64
2023-04-26T04:38:49.220Z,23.60
2023-04-26T04:39:49.208Z,23.57
2023-04-26T04:40:49.181Z,23.59
2023-04-26T04:41:49.218Z,23.63
2023-04-26T04:42:49.176Z,23.56
2023-04-26T04:43:49.142Z,23.59
2023-04-26T04:44:49.173Z,23.54
2023-04-26T04:45:49.192Z,23.62
2023-04-26T04:46:49.200Z,23.63
2023-04-26T04:47:49.228Z,23.59
2023-04-26T04:48:49.136Z,23.60
2023-04-26T04:49:49.150Z,23.56
2023-04-26T04:50:49.104Z,23.59
2023-04-26T04:51:49.101Z,23.59
2023-04-26T04:52:49.082Z,23.65
2023-04-26T04:53:49.111Z,23.60
2023-04-26T04:54:49.070Z,23.62
2023-04-26T04:55:49.077Z,23.59
2023-04-26T04:56:49.105Z,23.59
2023-04-26T04:57:49.061Z,23.62
2023-04-26T04:58:49.121Z,23.59
2023-04-26T04:59:49.088Z,23.56
2023-04-26T05:00:56.042Z,23.59
2023-04-26T05:01:49.083Z,23.60
2023-04-26T05:02:49.135Z,23.63
2023-04-26T05:03:49.198Z,23.62
2023-04-26T05:04:49.090Z,23.65
2023-04-26T05:05:49.015Z,23.60
2023-04-26T05:06:48.997Z,23.60
2023-04-26T05:07:49.045Z,23.60
2023-04-26T05:08:49.016Z,23.65
2023-04-26T05:09:48.999Z,23.59
2023-04-26T05:10:49.001Z,23.63
2023-04-26T05:11:48.992Z,23.65
2023-04-26T05:12:48.971Z,23.64
2023-04-26T05:13:50.303Z,23.63
2023-04-26T05:14:49.137Z,23.66
2023-04-26T05:15:49.139Z,23.69
2023-04-26T05:16:49.256Z,23.67
2023-04-26T05:17:49.163Z,23.64
2023-04-26T05:18:49.132Z,23.70
2023-04-26T05:19:49.137Z,23.67
2023-04-26T05:20:49.123Z,23.65
2023-04-26T05:21:49.149Z,23.65
2023-04-26T05:22:49.143Z,23.71
2023-04-26T05:23:49.114Z,23.70
2023-04-26T05:24:49.198Z,23.70
2023-04-26T05:25:49.183Z,23.73
2023-04-26T05:26:49.135Z,23.73
2023-04-26T05:27:49.150Z,23.70
2023-04-26T05:28:49.171Z,23.70
2023-04-26T05:29:49.172Z,23.75
2023-04-26T05:30:49.162Z,23.78
2023-04-26T05:31:49.780Z,23.77
2023-04-26T05:32:49.141Z,23.71
2023-04-26T05:33:49.170Z,23.81
2023-04-26T05:34:49.159Z,24.05
2023-04-26T05:35:49.172Z,24.12
2023-04-26T05:36:49.665Z,24.76
2023-04-26T05:37:49.205Z,25.00
2023-04-26T05:38:49.348Z,26.61
2023-04-26T05:39:49.258Z,25.47
2023-04-26T05:40:49.290Z,26.88
2023-04-26T05:41:49.696Z,28.54
2023-04-26T05:42:49.305Z,28.62
2023-04-26T05:43:49.333Z,29.43
2023-04-26T05:44:49.362Z,30.02
2023-04-26T05:45:56.922Z,28.41
2023-04-26T05:46:49.404Z,28.09
2023-04-26T05:47:49.451Z,28.93
2023-04-26T05:48:49.349Z,27.17
2023-04-26T05:49:49.353Z,26.39
2023-04-26T05:50:49.387Z,25.63
2023-04-26T05:51:49.674Z,25.26
2023-04-26T05:52:49.350Z,25.14
2023-04-26T05:53:49.538Z,24.84
2023-04-26T05:54:49.345Z,24.74
2023-04-26T05:55:49.343Z,24.76
2023-04-26T05:56:49.320Z,24.74
2023-04-26T05:57:49.362Z,24.78
2023-04-26T05:58:49.261Z,24.89
2023-04-26T05:59:49.344Z,24.87
2023-04-26T06:00:49.306Z,24.80
2023-04-26T06:01:49.328Z,24.87
2023-04-26T06:02:49.416Z,24.97
2023-04-26T06:03:49.499Z,25.05
2023-04-26T06:04:49.359Z,25.05
2023-04-26T06:05:49.331Z,25.07
2023-04-26T06:06:49.251Z,25.13
2023-04-26T06:07:49.235Z,25.20
2023-04-26T06:08:49.236Z,25.22
2023-04-26T06:09:49.189Z,25.25
2023-04-26T06:10:50.105Z,25.19
2023-04-26T06:11:49.261Z,25.16
2023-04-26T06:12:49.262Z,25.20
2023-04-26T06:13:49.330Z,25.20
2023-04-26T06:14:49.379Z,25.28
2023-04-26T06:15:49.410Z,25.20
2023-04-26T06:16:49.502Z,25.25
2023-04-26T06:17:49.501Z,25.26
2023-04-26T06:18:49.511Z,25.29
2023-04-26T06:19:49.543Z,25.30
2023-04-26T06:20:49.583Z,25.24
2023-04-26T06:21:49.668Z,25.32
2023-04-26T06:22:49.709Z,25.38
2023-04-26T06:23:49.738Z,25.48
2023-04-26T06:24:49.778Z,25.35
2023-04-26T06:25:49.826Z,25.35
2023-04-26T06:26:49.861Z,25.28
2023-04-26T06:27:49.941Z,25.21
2023-04-26T06:28:49.982Z,25.24
2023-04-26T06:29:50.014Z,25.25
2023-04-26T06:30:50.137Z,25.19
2023-04-26T06:31:50.285Z,25.39
2023-04-26T06:32:50.203Z,26.80
2023-04-26T06:33:50.391Z,26.90
2023-04-26T06:34:50.299Z,26.87
2023-04-26T06:35:50.354Z,27.17
2023-04-26T06:36:50.370Z,27.15
2023-04-26T06:37:50.699Z,28.95
2023-04-26T06:38:50.555Z,28.72
2023-04-26T06:39:50.637Z,28.47
2023-04-26T06:40:50.381Z,28.51
2023-04-26T06:41:51.946Z,28.49
2023-04-26T06:42:50.631Z,28.53
2023-04-26T06:43:50.602Z,28.63
2023-04-26T06:44:50.466Z,28.55
2023-04-26T06:45:50.584Z,28.70
2023-04-26T06:46:50.694Z,28.35
2023-04-26T06:47:50.591Z,29.10
2023-04-26T06:48:50.650Z,28.98
2023-04-26T06:49:50.701Z,28.70
2023-04-26T06:50:50.695Z,29.09
2023-04-26T06:51:50.818Z,28.65
2023-04-26T06:52:51.230Z,28.25
2023-04-26T06:53:51.177Z,29.24
2023-04-26T06:54:56.931Z,28.13
2023-04-26T06:55:51.867Z,28.00
2023-04-26T06:56:51.056Z,27.84
2023-04-26T06:57:51.185Z,27.77
2023-04-26T06:58:50.869Z,27.83
2023-04-26T06:59:50.844Z,27.70
2023-04-26T07:00:50.830Z,27.30
2023-04-26T07:01:50.882Z,27.13
2023-04-26T07:02:50.861Z,27.07
2023-04-26T07:03:51.133Z,27.06
2023-04-26T07:04:51.091Z,26.78
2023-04-26T07:05:51.010Z,26.70
2023-04-26T07:06:50.826Z,26.88
2023-04-26T07:07:50.775Z,27.01
2023-04-26T07:08:50.854Z,26.80
2023-04-26T07:09:50.753Z,26.61
2023-04-26T07:10:50.781Z,26.68
2023-04-26T07:11:50.736Z,26.48
2023-04-26T07:12:50.913Z,26.04
2023-04-26T07:13:51.027Z,25.76
2023-04-26T07:14:50.716Z,25.65
2023-04-26T07:15:50.745Z,25.59
2023-04-26T07:16:50.746Z,25.70
2023-04-26T07:17:50.709Z,26.14
2023-04-26T07:18:50.678Z,26.15
2023-04-26T07:19:50.644Z,26.28
2023-04-26T07:20:51.635Z,26.24
2023-04-26T07:21:50.643Z,26.54
2023-04-26T07:22:50.734Z,26.29
2023-04-26T07:23:51.416Z,26.02
2023-04-26T07:24:50.676Z,25.81
2023-04-26T07:25:50.647Z,25.50
2023-04-26T07:26:50.659Z,25.37
2023-04-26T07:27:50.747Z,25.74
2023-04-26T07:28:50.626Z,25.76
2023-04-26T07:29:50.613Z,25.65
2023-04-26T07:30:50.622Z,25.44
2023-04-26T07:31:50.621Z,26.23
2023-04-26T07:32:50.872Z,26.70
2023-04-26T07:33:50.860Z,26.76
2023-04-26T07:34:50.627Z,27.18
2023-04-26T07:35:50.674Z,26.25
2023-04-26T07:36:50.733Z,26.80
2023-04-26T07:37:50.749Z,27.11
2023-04-26T07:38:50.797Z,27.36
2023-04-26T07:39:50.872Z,27.40
2023-04-26T07:40:50.907Z,27.63
2023-04-26T07:41:51.001Z,27.56
2023-04-26T07:42:51.026Z,28.70
2023-04-26T07:43:51.274Z,26.39
2023-04-26T07:44:51.130Z,26.25
2023-04-26T07:45:51.315Z,25.65
2023-04-26T07:46:51.280Z,25.41
2023-04-26T07:47:51.434Z,25.97
2023-04-26T07:48:51.367Z,25.59
2023-04-26T07:49:51.446Z,26.04
2023-04-26T07:50:51.516Z,26.03
2023-04-26T07:51:51.526Z,24.98
2023-04-26T07:52:51.557Z,25.33
2023-04-26T07:53:51.753Z,24.83
2023-04-26T07:54:51.640Z,25.85
2023-04-26T07:55:51.725Z,25.17
2023-04-26T07:56:51.780Z,25.00
2023-04-26T07:57:52.208Z,24.65
2023-04-26T07:58:51.843Z,24.71
2023-04-26T07:59:52.077Z,24.71
2023-04-26T08:00:51.991Z,25.43
2023-04-26T08:01:52.049Z,25.25
2023-04-26T08:02:52.407Z,25.17
2023-04-26T08:03:52.461Z,24.94
2023-04-26T08:04:52.296Z,24.71
2023-04-26T08:05:52.489Z,25.11
2023-04-26T08:06:52.236Z,25.13
2023-04-26T08:07:52.759Z,24.80
2023-04-26T08:08:52.324Z,25.01
2023-04-26T08:09:52.391Z,24.79
2023-04-26T08:10:52.591Z,25.20
2023-04-26T08:11:52.587Z,25.60
2023-04-26T08:12:52.768Z,25.08
2023-04-26T08:13:52.761Z,25.06
2023-04-26T08:14:53.208Z,25.46
2023-04-26T08:15:52.863Z,25.23
2023-04-26T08:16:52.818Z,24.84
2023-04-26T08:17:52.907Z,24.43
2023-04-26T08:18:52.942Z,25.36
2023-04-26T08:19:52.965Z,26.31
2023-04-26T08:20:53.001Z,25.38
2023-04-26T08:21:53.066Z,26.29
2023-04-26T08:22:53.159Z,26.79
2023-04-26T08:23:53.516Z,25.37
2023-04-26T08:24:53.202Z,25.37
2023-04-26T08:25:53.208Z,25.05
2023-04-26T08:26:53.294Z,24.92
2023-04-26T08:27:53.326Z,24.41
2023-04-26T08:28:53.359Z,25.25
2023-04-26T08:29:53.433Z,24.57
2023-04-26T08:30:53.549Z,24.48
2023-04-26T08:31:53.637Z,25.12
2023-04-26T08:32:53.765Z,25.77
2023-04-26T08:33:53.925Z,25.62
2023-04-26T08:34:53.645Z,26.12
2023-04-26T08:35:53.797Z,26.10
2023-04-26T08:36:53.723Z,24.30
2023-04-26T08:37:54.206Z,24.92
2023-04-26T08:38:53.797Z,24.19
2023-04-26T08:39:53.883Z,25.37
2023-04-26T08:40:53.896Z,26.49
2023-04-26T08:41:53.947Z,26.33
2023-04-26T08:42:54.030Z,27.24
2023-04-26T08:43:54.404Z,26.91
2023-04-26T08:44:54.354Z,26.39
2023-04-26T08:45:54.232Z,26.46
2023-04-26T08:46:54.186Z,25.52
2023-04-26T08:47:54.265Z,26.21
2023-04-26T08:48:54.211Z,26.62
2023-04-26T08:49:54.287Z,26.04
2023-04-26T08:50:54.333Z,26.23
2023-04-26T08:51:54.309Z,26.37
2023-04-26T08:52:54.774Z,25.21
2023-04-26T08:53:54.464Z,24.91
2023-04-26T08:54:54.409Z,23.98
2023-04-26T08:55:54.379Z,23.32
2023-04-26T08:56:54.411Z,22.89
2023-04-26T08:57:54.462Z,22.74
2023-04-26T08:58:54.461Z,22.69
2023-04-26T08:59:54.474Z,22.55
2023-04-26T09:00:54.539Z,22.43
2023-04-26T09:01:54.580Z,22.36
2023-04-26T09:02:54.724Z,22.39
2023-04-26T09:03:55.233Z,22.24
2023-04-26T09:04:54.878Z,22.23
2023-04-26T09:05:54.772Z,22.26
2023-04-26T09:06:54.819Z,22.08
2023-04-26T09:07:54.849Z,21.91
2023-04-26T09:08:55.238Z,21.86
2023-04-26T09:09:55.016Z,21.83
2023-04-26T09:10:55.046Z,21.79
2023-04-26T09:11:55.088Z,21.78
2023-04-26T09:12:55.263Z,21.78
2023-04-26T09:13:55.202Z,21.68
2023-04-26T09:14:55.383Z,21.54
2023-04-26T09:15:55.326Z,21.54
2023-04-26T09:16:55.340Z,21.39
2023-04-26T09:17:55.378Z,21.35
2023-04-26T09:18:55.485Z,21.34
2023-04-26T09:19:55.363Z,21.19
2023-04-26T09:20:55.383Z,21.20
2023-04-26T09:21:55.354Z,21.11
2023-04-26T09:22:55.373Z,21.07
2023-04-26T09:23:55.384Z,21.02
2023-04-26T09:24:55.336Z,20.91
2023-04-26T09:25:55.354Z,20.84
2023-04-26T09:26:55.362Z,20.79
2023-04-26T09:27:55.383Z,20.71
2023-04-26T09:28:55.374Z,20.76
2023-04-26T09:29:55.355Z,20.62
2023-04-26T09:30:55.423Z,20.59
2023-04-26T09:31:55.346Z,20.68
2023-04-26T09:32:55.330Z,20.59
2023-04-26T09:33:55.421Z,20.53
2023-04-26T09:34:55.333Z,20.45
2023-04-26T09:35:55.363Z,20.56
2023-04-26T09:36:55.351Z,20.43
2023-04-26T09:37:59.600Z,20.45
2023-04-26T09:38:56.764Z,20.41
2023-04-26T09:39:55.328Z,20.22
2023-04-26T09:40:55.351Z,20.20
2023-04-26T09:41:55.340Z,20.03
2023-04-26T09:42:55.328Z,20.15
2023-04-26T09:43:55.312Z,20.15
2023-04-26T09:44:55.287Z,20.11
2023-04-26T09:45:55.310Z,20.18
2023-04-26T09:46:55.346Z,20.31
2023-04-26T09:47:55.326Z,21.37
2023-04-26T09:48:55.905Z,24.36
2023-04-26T09:49:55.290Z,27.55
2023-04-26T09:50:55.286Z,27.77
2023-04-26T09:51:55.261Z,25.47
2023-04-26T09:52:55.680Z,25.94
2023-04-26T09:53:56.640Z,24.85
2023-04-26T09:54:55.361Z,26.31
2023-04-26T09:55:55.446Z,25.52
2023-04-26T09:56:55.464Z,24.53
2023-04-26T09:57:55.580Z,25.46
2023-04-26T09:58:55.633Z,25.88
2023-04-26T09:59:55.877Z,25.27
2023-04-26T10:00:55.643Z,24.23
2023-04-26T10:01:55.614Z,23.96
2023-04-26T10:02:55.752Z,22.76
2023-04-26T10:03:56.094Z,23.29
2023-04-26T10:04:55.865Z,22.16
2023-04-26T10:05:55.920Z,22.55
2023-04-26T10:06:55.932Z,21.17
2023-04-26T10:07:56.073Z,22.48
2023-04-26T10:08:56.595Z,21.76
2023-04-26T10:09:56.112Z,21.58
2023-04-26T10:10:56.167Z,23.05
2023-04-26T10:11:56.232Z,21.54
2023-04-26T10:12:56.285Z,22.62
2023-04-26T10:13:56.372Z,21.13
2023-04-26T10:14:56.417Z,21.78
2023-04-26T10:15:56.469Z,21.87
2023-04-26T10:16:56.573Z,21.60
2023-04-26T10:17:56.623Z,21.33
2023-04-26T10:18:56.669Z,21.65
2023-04-26T10:19:56.680Z,22.10
2023-04-26T10:20:56.713Z,21.22
2023-04-26T10:21:56.792Z,21.04
2023-04-26T10:22:57.785Z,20.73
2023-04-26T10:23:56.886Z,21.36
2023-04-26T10:24:56.968Z,21.47
2023-04-26T10:25:57.112Z,21.20
2023-04-26T10:26:57.068Z,21.46
2023-04-26T10:27:57.113Z,20.70
2023-04-26T10:29:02.074Z,20.44
2023-04-26T10:29:58.200Z,20.02
2023-04-26T10:30:57.185Z,20.56
2023-04-26T10:31:57.225Z,19.87
2023-04-26T10:32:57.298Z,19.82
2023-04-26T10:33:57.279Z,19.73
2023-04-26T10:34:57.234Z,19.81
2023-04-26T10:35:57.170Z,19.69
2023-04-26T10:36:57.254Z,19.94
2023-04-26T10:37:57.390Z,20.57
2023-04-26T10:38:57.265Z,20.22
2023-04-26T10:39:57.509Z,20.31
2023-04-26T10:40:57.381Z,20.04
2023-04-26T10:41:57.465Z,19.80
2023-04-26T10:42:57.470Z,19.62
2023-04-26T10:43:58.157Z,19.88
2023-04-26T10:44:57.612Z,20.53
2023-04-26T10:45:57.682Z,19.98
2023-04-26T10:46:57.709Z,20.01
2023-04-26T10:47:57.861Z,20.17
2023-04-26T10:48:57.826Z,20.47
2023-04-26T10:49:57.909Z,20.10
2023-04-26T10:50:57.932Z,20.04
2023-04-26T10:51:57.999Z,20.26
2023-04-26T10:52:58.100Z,20.12
2023-04-26T10:53:58.502Z,20.38
2023-04-26T10:54:58.317Z,20.59
2023-04-26T10:55:58.281Z,20.18
2023-04-26T10:56:58.314Z,19.98
2023-04-26T10:57:58.336Z,19.96
2023-04-26T10:58:58.392Z,19.95
2023-04-26T10:59:58.409Z,19.78
2023-04-26T11:00:58.480Z,19.54
2023-04-26T11:01:58.505Z,19.24
2023-04-26T11:02:58.758Z,19.34
2023-04-26T11:03:59.316Z,19.91
2023-04-26T11:04:58.853Z,21.68
2023-04-26T11:05:59.105Z,19.72
2023-04-26T11:06:58.814Z,20.00
2023-04-26T11:07:58.813Z,22.84
2023-04-26T11:08:59.326Z,21.44
2023-04-26T11:09:58.943Z,20.87
2023-04-26T11:10:59.162Z,20.67
2023-04-26T11:11:59.251Z,20.12
2023-04-26T11:12:59.072Z,21.64
2023-04-26T11:13:59.326Z,20.34
2023-04-26T11:15:00.310Z,19.73
2023-04-26T11:15:59.242Z,19.33
2023-04-26T11:16:59.237Z,18.91
2023-04-26T11:17:59.353Z,19.00
2023-04-26T11:18:59.388Z,18.97
2023-04-26T11:19:59.426Z,19.44
2023-04-26T11:20:59.528Z,19.01
2023-04-26T11:21:59.506Z,20.05
2023-04-26T11:22:59.504Z,20.35
2023-04-26T11:23:59.493Z,20.79
2023-04-26T11:24:59.532Z,20.52
2023-04-26T11:25:59.539Z,20.15
2023-04-26T11:26:59.580Z,19.92
2023-04-26T11:27:59.708Z,19.98
2023-04-26T11:28:59.764Z,19.98
2023-04-26T11:29:59.816Z,20.12
2023-04-26T11:30:59.870Z,20.70
2023-04-26T11:31:59.904Z,20.93
2023-04-26T11:33:00.325Z,21.02
2023-04-26T11:33:59.960Z,21.29
2023-04-26T11:35:00.355Z,21.19
2023-04-26T11:36:00.157Z,20.99
2023-04-26T11:37:00.156Z,20.88
2023-04-26T11:38:00.202Z,20.61
2023-04-26T11:39:00.248Z,20.56
2023-04-26T11:40:00.365Z,20.10
2023-04-26T11:41:00.397Z,20.27
2023-04-26T11:42:00.446Z,19.92
2023-04-26T11:43:00.508Z,19.80
2023-04-26T11:44:00.659Z,19.81
2023-04-26T11:45:00.656Z,19.77
2023-04-26T11:46:00.679Z,19.75
2023-04-26T11:47:00.867Z,19.35
2023-04-26T11:48:00.873Z,19.35
2023-04-26T11:49:00.902Z,19.28
2023-04-26T11:50:00.954Z,19.16
2023-04-26T11:51:01.014Z,19.20
2023-04-26T11:52:01.086Z,19.20
2023-04-26T11:53:01.120Z,19.34
2023-04-26T11:54:01.194Z,19.34
2023-04-26T11:55:01.268Z,19.34
2023-04-26T11:56:01.313Z,19.19
2023-04-26T11:57:01.376Z,19.26
2023-04-26T11:58:01.436Z,19.17
2023-04-26T11:59:01.495Z,19.25
2023-04-26T12:00:01.574Z,19.33
2023-04-26T12:01:01.602Z,19.26
2023-04-26T12:02:01.694Z,19.28
2023-04-26T12:03:01.888Z,19.04
2023-04-26T12:04:01.876Z,19.32
2023-04-26T12:05:01.991Z,19.22
2023-04-26T12:06:01.954Z,19.20
2023-04-26T12:07:02.017Z,19.02
2023-04-26T12:08:02.075Z,18.72
2023-04-26T12:09:02.131Z,18.98
2023-04-26T12:10:02.154Z,18.72
2023-04-26T12:11:02.300Z,18.80
2023-04-26T12:12:02.326Z,18.77
2023-04-26T12:13:02.357Z,18.82
2023-04-26T12:14:02.401Z,18.89
2023-04-26T12:15:04.337Z,18.93
2023-04-26T12:16:05.295Z,18.92
2023-04-26T12:17:02.543Z,18.89
2023-04-26T12:18:02.586Z,18.72
2023-04-26T12:19:02.522Z,18.71
2023-04-26T12:20:02.495Z,18.69
2023-04-26T12:21:02.466Z,18.69
2023-04-26T12:22:02.475Z,18.60
2023-04-26T12:23:02.494Z,18.55
2023-04-26T12:24:02.460Z,18.43
2023-04-26T12:25:02.429Z,18.45
2023-04-26T12:26:02.413Z,18.28
2023-04-26T12:27:02.836Z,18.44
2023-04-26T12:28:02.482Z,18.37
2023-04-26T12:29:02.558Z,18.25
2023-04-26T12:30:02.601Z,18.19
2023-04-26T12:31:02.671Z,18.24
2023-04-26T12:32:02.964Z,18.24
2023-04-26T12:33:15.373Z,18.25
2023-04-26T12:34:03.784Z,18.25
2023-04-26T12:35:02.786Z,18.23
2023-04-26T12:36:02.736Z,18.27
2023-04-26T12:37:02.715Z,18.33
2023-04-26T12:38:02.712Z,18.47
2023-04-26T12:39:02.722Z,18.60
2023-04-26T12:40:02.715Z,18.39
2023-04-26T12:41:02.737Z,18.24
2023-04-26T12:42:02.686Z,18.19
2023-04-26T12:43:02.679Z,18.15
2023-04-26T12:44:02.690Z,18.28
2023-04-26T12:45:02.743Z,18.21
2023-04-26T12:46:02.878Z,18.50
2023-04-26T12:47:02.835Z,18.42
2023-04-26T12:48:02.991Z,18.47
2023-04-26T12:49:02.926Z,18.39
2023-04-26T12:50:02.995Z,18.50
2023-04-26T12:51:03.030Z,18.53
2023-04-26T12:52:03.081Z,18.62
2023-04-26T12:53:03.130Z,18.62
2023-04-26T12:54:03.220Z,19.09